sensor_id;sensor_type;location;lat;lon;timestamp;P1;durP1;ratioP1;P2;durP2;ratioP2
57635;SDS011;43465;50.728;4.160;2022-07-23T00:01:59;22.02;;;18.33;;
57635;SDS011;43465;50.728;4.160;2022-07-23T00:04:25;22.30;;;17.55;;
57635;SDS011;43465;50.728;4.160;2022-07-23T00:06:51;21.92;;;18.67;;
57635;SDS011;43465;50.728;4.160;2022-07-23T00:09:16;20.60;;;17.73;;
57635;SDS011;43465;50.728;4.160;2022-07-23T00:11:42;21.95;;;19.20;;
57635;SDS011;43465;50.728;4.160;2022-07-23T00:14:07;21.65;;;19.15;;
57635;SDS011;43465;50.728;4.160;2022-07-23T00:16:33;21.88;;;18.67;;
57635;SDS011;43465;50.728;4.160;2022-07-23T00:18:58;24.77;;;19.95;;
57635;SDS011;43465;50.728;4.160;2022-07-23T00:21:26;21.52;;;18.73;;
57635;SDS011;43465;50.728;4.160;2022-07-23T00:23:52;24.55;;;20.63;;
57635;SDS011;43465;50.728;4.160;2022-07-23T00:26:17;25.08;;;20.13;;
57635;SDS011;43465;50.728;4.160;2022-07-23T00:28:43;23.30;;;19.58;;
57635;SDS011;43465;50.728;4.160;2022-07-23T00:31:08;27.45;;;20.02;;
57635;SDS011;43465;50.728;4.160;2022-07-23T00:33:34;24.73;;;19.88;;
57635;SDS011;43465;50.728;4.160;2022-07-23T00:36:00;27.65;;;21.80;;
57635;SDS011;43465;50.728;4.160;2022-07-23T00:38:29;25.63;;;21.63;;
57635;SDS011;43465;50.728;4.160;2022-07-23T00:40:54;29.52;;;21.70;;
57635;SDS011;43465;50.728;4.160;2022-07-23T00:43:23;24.98;;;21.02;;
57635;SDS011;43465;50.728;4.160;2022-07-23T00:45:49;26.35;;;21.90;;
57635;SDS011;43465;50.728;4.160;2022-07-23T00:48:16;32.80;;;23.50;;
57635;SDS011;43465;50.728;4.160;2022-07-23T00:50:42;27.52;;;22.25;;
57635;SDS011;43465;50.728;4.160;2022-07-23T00:53:08;24.00;;;21.25;;
57635;SDS011;43465;50.728;4.160;2022-07-23T00:55:34;23.88;;;21.23;;
57635;SDS011;43465;50.728;4.160;2022-07-23T00:58:00;29.08;;;21.77;;
57635;SDS011;43465;50.728;4.160;2022-07-23T01:00:27;28.55;;;23.38;;
57635;SDS011;43465;50.728;4.160;2022-07-23T01:02:53;24.48;;;21.23;;
57635;SDS011;43465;50.728;4.160;2022-07-23T01:05:19;25.05;;;21.35;;
57635;SDS011;43465;50.728;4.160;2022-07-23T01:07:47;25.95;;;21.30;;
57635;SDS011;43465;50.728;4.160;2022-07-23T01:10:14;25.25;;;22.52;;
57635;SDS011;43465;50.728;4.160;2022-07-23T01:12:58;25.70;;;22.13;;
57635;SDS011;43465;50.728;4.160;2022-07-23T01:15:25;28.13;;;22.98;;
57635;SDS011;43465;50.728;4.160;2022-07-23T01:17:51;28.10;;;22.08;;
57635;SDS011;43465;50.728;4.160;2022-07-23T01:20:26;26.20;;;21.83;;
57635;SDS011;43465;50.728;4.160;2022-07-23T01:22:52;29.02;;;23.00;;
57635;SDS011;43465;50.728;4.160;2022-07-23T01:25:18;26.35;;;23.48;;
57635;SDS011;43465;50.728;4.160;2022-07-23T01:27:44;31.50;;;23.98;;
57635;SDS011;43465;50.728;4.160;2022-07-23T01:30:14;29.98;;;22.85;;
57635;SDS011;43465;50.728;4.160;2022-07-23T01:32:39;28.73;;;23.10;;
57635;SDS011;43465;50.728;4.160;2022-07-23T01:35:06;28.70;;;23.73;;
57635;SDS011;43465;50.728;4.160;2022-07-23T01:37:32;31.77;;;24.42;;
57635;SDS011;43465;50.728;4.160;2022-07-23T01:39:57;27.13;;;23.85;;
57635;SDS011;43465;50.728;4.160;2022-07-23T01:42:24;32.67;;;24.83;;
57635;SDS011;43465;50.728;4.160;2022-07-23T01:44:49;27.75;;;23.30;;
57635;SDS011;43465;50.728;4.160;2022-07-23T01:47:15;26.02;;;22.85;;
57635;SDS011;43465;50.728;4.160;2022-07-23T01:49:41;27.60;;;22.65;;
57635;SDS011;43465;50.728;4.160;2022-07-23T01:52:07;30.80;;;24.48;;
57635;SDS011;43465;50.728;4.160;2022-07-23T01:54:35;29.42;;;23.92;;
57635;SDS011;43465;50.728;4.160;2022-07-23T01:57:02;33.38;;;24.38;;
57635;SDS011;43465;50.728;4.160;2022-07-23T01:59:29;29.95;;;24.80;;
57635;SDS011;43465;50.728;4.160;2022-07-23T02:01:55;27.13;;;23.20;;
57635;SDS011;43465;50.728;4.160;2022-07-23T02:04:21;25.23;;;22.35;;
57635;SDS011;43465;50.728;4.160;2022-07-23T02:06:48;26.15;;;21.83;;
57635;SDS011;43465;50.728;4.160;2022-07-23T02:09:17;28.38;;;23.10;;
57635;SDS011;43465;50.728;4.160;2022-07-23T02:11:45;26.27;;;23.02;;
57635;SDS011;43465;50.728;4.160;2022-07-23T02:14:11;26.38;;;21.05;;
57635;SDS011;43465;50.728;4.160;2022-07-23T02:16:36;25.17;;;22.25;;
57635;SDS011;43465;50.728;4.160;2022-07-23T02:19:02;27.45;;;22.60;;
57635;SDS011;43465;50.728;4.160;2022-07-23T02:21:28;28.50;;;23.00;;
57635;SDS011;43465;50.728;4.160;2022-07-23T02:23:54;26.08;;;21.65;;
57635;SDS011;43465;50.728;4.160;2022-07-23T02:26:20;28.17;;;21.05;;
57635;SDS011;43465;50.728;4.160;2022-07-23T02:28:45;27.67;;;22.35;;
57635;SDS011;43465;50.728;4.160;2022-07-23T02:31:11;24.08;;;20.80;;
57635;SDS011;43465;50.728;4.160;2022-07-23T02:33:36;24.23;;;21.00;;
57635;SDS011;43465;50.728;4.160;2022-07-23T02:36:02;25.83;;;21.10;;
57635;SDS011;43465;50.728;4.160;2022-07-23T02:38:28;26.10;;;22.00;;
57635;SDS011;43465;50.728;4.160;2022-07-23T02:40:53;26.67;;;23.52;;
57635;SDS011;43465;50.728;4.160;2022-07-23T02:43:19;27.05;;;22.95;;
57635;SDS011;43465;50.728;4.160;2022-07-23T02:45:44;29.27;;;23.05;;
57635;SDS011;43465;50.728;4.160;2022-07-23T02:48:10;30.88;;;22.77;;
57635;SDS011;43465;50.728;4.160;2022-07-23T02:50:37;27.35;;;22.65;;
57635;SDS011;43465;50.728;4.160;2022-07-23T02:53:03;27.73;;;23.73;;
57635;SDS011;43465;50.728;4.160;2022-07-23T02:55:29;30.08;;;24.02;;
57635;SDS011;43465;50.728;4.160;2022-07-23T02:57:56;28.73;;;25.58;;
57635;SDS011;43465;50.728;4.160;2022-07-23T03:00:22;30.23;;;23.75;;
57635;SDS011;43465;50.728;4.160;2022-07-23T03:02:47;31.45;;;23.95;;
57635;SDS011;43465;50.728;4.160;2022-07-23T03:05:13;27.02;;;24.00;;
57635;SDS011;43465;50.728;4.160;2022-07-23T03:07:39;30.90;;;23.63;;
57635;SDS011;43465;50.728;4.160;2022-07-23T03:10:04;31.05;;;25.00;;
57635;SDS011;43465;50.728;4.160;2022-07-23T03:12:30;32.83;;;25.17;;
57635;SDS011;43465;50.728;4.160;2022-07-23T03:14:56;33.05;;;26.55;;
57635;SDS011;43465;50.728;4.160;2022-07-23T03:17:22;32.53;;;26.98;;
57635;SDS011;43465;50.728;4.160;2022-07-23T03:19:47;36.03;;;28.08;;
57635;SDS011;43465;50.728;4.160;2022-07-23T03:22:13;33.55;;;27.92;;
57635;SDS011;43465;50.728;4.160;2022-07-23T03:24:38;35.65;;;26.98;;
57635;SDS011;43465;50.728;4.160;2022-07-23T03:27:22;28.35;;;25.35;;
57635;SDS011;43465;50.728;4.160;2022-07-23T03:29:50;35.20;;;27.58;;
57635;SDS011;43465;50.728;4.160;2022-07-23T03:32:16;35.28;;;27.80;;
57635;SDS011;43465;50.728;4.160;2022-07-23T03:34:46;33.33;;;26.90;;
57635;SDS011;43465;50.728;4.160;2022-07-23T03:37:11;34.88;;;26.98;;
57635;SDS011;43465;50.728;4.160;2022-07-23T03:39:37;29.52;;;25.20;;
57635;SDS011;43465;50.728;4.160;2022-07-23T03:42:03;35.83;;;29.10;;
57635;SDS011;43465;50.728;4.160;2022-07-23T03:44:29;32.42;;;27.02;;
57635;SDS011;43465;50.728;4.160;2022-07-23T03:46:55;32.85;;;27.83;;
57635;SDS011;43465;50.728;4.160;2022-07-23T03:49:23;30.83;;;27.23;;
57635;SDS011;43465;50.728;4.160;2022-07-23T03:51:49;33.10;;;26.08;;
57635;SDS011;43465;50.728;4.160;2022-07-23T03:54:18;32.97;;;26.70;;
57635;SDS011;43465;50.728;4.160;2022-07-23T03:56:43;36.25;;;28.80;;
57635;SDS011;43465;50.728;4.160;2022-07-23T03:59:09;37.33;;;29.40;;
57635;SDS011;43465;50.728;4.160;2022-07-23T04:01:35;36.90;;;29.00;;
57635;SDS011;43465;50.728;4.160;2022-07-23T04:04:01;33.17;;;27.70;;
57635;SDS011;43465;50.728;4.160;2022-07-23T04:06:27;33.45;;;28.88;;
57635;SDS011;43465;50.728;4.160;2022-07-23T04:08:52;37.70;;;28.98;;
57635;SDS011;43465;50.728;4.160;2022-07-23T04:11:18;31.40;;;25.80;;
57635;SDS011;43465;50.728;4.160;2022-07-23T04:13:43;32.20;;;26.80;;
57635;SDS011;43465;50.728;4.160;2022-07-23T04:16:09;34.55;;;28.48;;
57635;SDS011;43465;50.728;4.160;2022-07-23T04:18:35;35.60;;;27.75;;
57635;SDS011;43465;50.728;4.160;2022-07-23T04:21:00;35.17;;;27.05;;
57635;SDS011;43465;50.728;4.160;2022-07-23T04:23:26;32.25;;;27.13;;
57635;SDS011;43465;50.728;4.160;2022-07-23T04:25:52;32.40;;;27.02;;
57635;SDS011;43465;50.728;4.160;2022-07-23T04:28:18;33.80;;;26.52;;
57635;SDS011;43465;50.728;4.160;2022-07-23T04:30:43;30.75;;;26.05;;
57635;SDS011;43465;50.728;4.160;2022-07-23T04:33:09;36.97;;;26.25;;
57635;SDS011;43465;50.728;4.160;2022-07-23T04:35:35;36.00;;;26.60;;
57635;SDS011;43465;50.728;4.160;2022-07-23T04:38:02;33.80;;;27.63;;
57635;SDS011;43465;50.728;4.160;2022-07-23T04:40:28;33.67;;;26.55;;
57635;SDS011;43465;50.728;4.160;2022-07-23T04:42:53;34.13;;;27.17;;
57635;SDS011;43465;50.728;4.160;2022-07-23T04:45:19;34.40;;;27.45;;
57635;SDS011;43465;50.728;4.160;2022-07-23T04:47:45;33.75;;;27.13;;
57635;SDS011;43465;50.728;4.160;2022-07-23T04:50:11;34.50;;;27.67;;
57635;SDS011;43465;50.728;4.160;2022-07-23T04:52:37;35.35;;;25.80;;
57635;SDS011;43465;50.728;4.160;2022-07-23T04:55:02;32.78;;;25.00;;
57635;SDS011;43465;50.728;4.160;2022-07-23T04:57:28;31.38;;;25.25;;
57635;SDS011;43465;50.728;4.160;2022-07-23T04:59:54;31.10;;;24.35;;
57635;SDS011;43465;50.728;4.160;2022-07-23T05:02:20;30.45;;;23.58;;
57635;SDS011;43465;50.728;4.160;2022-07-23T05:04:46;28.98;;;22.25;;
57635;SDS011;43465;50.728;4.160;2022-07-23T05:07:14;27.55;;;22.60;;
57635;SDS011;43465;50.728;4.160;2022-07-23T05:09:40;32.72;;;23.17;;
57635;SDS011;43465;50.728;4.160;2022-07-23T05:12:06;27.15;;;21.83;;
57635;SDS011;43465;50.728;4.160;2022-07-23T05:14:32;25.80;;;20.77;;
57635;SDS011;43465;50.728;4.160;2022-07-23T05:16:57;23.42;;;20.52;;
57635;SDS011;43465;50.728;4.160;2022-07-23T05:19:23;26.33;;;21.05;;
57635;SDS011;43465;50.728;4.160;2022-07-23T05:21:49;27.42;;;21.60;;
57635;SDS011;43465;50.728;4.160;2022-07-23T05:24:14;26.40;;;21.83;;
57635;SDS011;43465;50.728;4.160;2022-07-23T05:26:40;26.33;;;21.38;;
57635;SDS011;43465;50.728;4.160;2022-07-23T05:29:05;26.50;;;21.02;;
57635;SDS011;43465;50.728;4.160;2022-07-23T05:31:34;24.77;;;21.92;;
57635;SDS011;43465;50.728;4.160;2022-07-23T05:34:00;28.98;;;21.55;;
57635;SDS011;43465;50.728;4.160;2022-07-23T05:36:26;25.73;;;21.40;;
57635;SDS011;43465;50.728;4.160;2022-07-23T05:38:51;27.70;;;20.85;;
57635;SDS011;43465;50.728;4.160;2022-07-23T05:41:17;24.60;;;20.75;;
57635;SDS011;43465;50.728;4.160;2022-07-23T05:43:42;25.20;;;20.83;;
57635;SDS011;43465;50.728;4.160;2022-07-23T05:46:08;24.50;;;19.92;;
57635;SDS011;43465;50.728;4.160;2022-07-23T05:48:34;24.65;;;20.48;;
57635;SDS011;43465;50.728;4.160;2022-07-23T05:50:59;25.92;;;19.77;;
57635;SDS011;43465;50.728;4.160;2022-07-23T05:53:25;22.02;;;19.58;;
57635;SDS011;43465;50.728;4.160;2022-07-23T05:55:51;24.02;;;19.35;;
57635;SDS011;43465;50.728;4.160;2022-07-23T05:58:17;23.35;;;18.70;;
57635;SDS011;43465;50.728;4.160;2022-07-23T06:00:42;23.35;;;19.10;;
57635;SDS011;43465;50.728;4.160;2022-07-23T06:03:08;24.85;;;18.67;;
57635;SDS011;43465;50.728;4.160;2022-07-23T06:05:34;23.42;;;20.52;;
57635;SDS011;43465;50.728;4.160;2022-07-23T06:07:59;26.38;;;19.88;;
57635;SDS011;43465;50.728;4.160;2022-07-23T06:10:25;24.67;;;19.98;;
57635;SDS011;43465;50.728;4.160;2022-07-23T06:12:50;25.95;;;19.67;;
57635;SDS011;43465;50.728;4.160;2022-07-23T06:15:16;25.02;;;19.73;;
57635;SDS011;43465;50.728;4.160;2022-07-23T06:17:42;25.92;;;19.92;;
57635;SDS011;43465;50.728;4.160;2022-07-23T06:20:08;22.38;;;19.95;;
57635;SDS011;43465;50.728;4.160;2022-07-23T06:22:35;22.98;;;19.55;;
57635;SDS011;43465;50.728;4.160;2022-07-23T06:25:01;22.30;;;19.00;;
57635;SDS011;43465;50.728;4.160;2022-07-23T06:27:27;21.63;;;19.23;;
57635;SDS011;43465;50.728;4.160;2022-07-23T06:29:53;22.73;;;19.95;;
57635;SDS011;43465;50.728;4.160;2022-07-23T06:32:19;26.00;;;20.15;;
57635;SDS011;43465;50.728;4.160;2022-07-23T06:34:45;26.58;;;20.35;;
57635;SDS011;43465;50.728;4.160;2022-07-23T06:37:11;29.05;;;20.90;;
57635;SDS011;43465;50.728;4.160;2022-07-23T06:39:36;22.50;;;19.73;;
57635;SDS011;43465;50.728;4.160;2022-07-23T06:42:02;26.40;;;20.05;;
57635;SDS011;43465;50.728;4.160;2022-07-23T06:44:28;23.13;;;19.20;;
57635;SDS011;43465;50.728;4.160;2022-07-23T06:46:54;21.05;;;18.77;;
57635;SDS011;43465;50.728;4.160;2022-07-23T06:49:19;22.42;;;18.63;;
57635;SDS011;43465;50.728;4.160;2022-07-23T06:51:45;23.25;;;19.35;;
57635;SDS011;43465;50.728;4.160;2022-07-23T06:54:11;23.17;;;18.38;;
57635;SDS011;43465;50.728;4.160;2022-07-23T06:56:36;23.92;;;18.98;;
57635;SDS011;43465;50.728;4.160;2022-07-23T06:59:02;22.60;;;18.60;;
57635;SDS011;43465;50.728;4.160;2022-07-23T07:01:28;22.38;;;17.77;;
57635;SDS011;43465;50.728;4.160;2022-07-23T07:03:54;21.65;;;18.33;;
57635;SDS011;43465;50.728;4.160;2022-07-23T07:06:19;22.40;;;18.60;;
57635;SDS011;43465;50.728;4.160;2022-07-23T07:08:45;21.08;;;18.63;;
57635;SDS011;43465;50.728;4.160;2022-07-23T07:11:11;22.40;;;18.42;;
57635;SDS011;43465;50.728;4.160;2022-07-23T07:13:37;22.27;;;17.45;;
57635;SDS011;43465;50.728;4.160;2022-07-23T07:16:03;20.15;;;17.73;;
57635;SDS011;43465;50.728;4.160;2022-07-23T07:18:29;19.83;;;17.25;;
57635;SDS011;43465;50.728;4.160;2022-07-23T07:20:55;21.80;;;16.77;;
57635;SDS011;43465;50.728;4.160;2022-07-23T07:23:21;20.65;;;17.00;;
57635;SDS011;43465;50.728;4.160;2022-07-23T07:25:47;19.23;;;17.15;;
57635;SDS011;43465;50.728;4.160;2022-07-23T07:28:13;19.63;;;17.00;;
57635;SDS011;43465;50.728;4.160;2022-07-23T07:30:38;17.75;;;15.85;;
57635;SDS011;43465;50.728;4.160;2022-07-23T07:33:04;17.05;;;14.95;;
57635;SDS011;43465;50.728;4.160;2022-07-23T07:35:30;17.52;;;15.52;;
57635;SDS011;43465;50.728;4.160;2022-07-23T07:37:57;16.67;;;14.13;;
57635;SDS011;43465;50.728;4.160;2022-07-23T07:40:23;16.95;;;14.80;;
57635;SDS011;43465;50.728;4.160;2022-07-23T07:42:52;15.23;;;13.38;;
57635;SDS011;43465;50.728;4.160;2022-07-23T07:45:21;16.33;;;14.57;;
57635;SDS011;43465;50.728;4.160;2022-07-23T07:47:49;16.15;;;14.02;;
57635;SDS011;43465;50.728;4.160;2022-07-23T07:50:16;18.33;;;14.65;;
57635;SDS011;43465;50.728;4.160;2022-07-23T07:52:41;17.73;;;14.57;;
57635;SDS011;43465;50.728;4.160;2022-07-23T07:55:08;18.83;;;14.25;;
57635;SDS011;43465;50.728;4.160;2022-07-23T07:57:35;16.27;;;13.52;;
57635;SDS011;43465;50.728;4.160;2022-07-23T08:00:00;15.68;;;13.45;;
57635;SDS011;43465;50.728;4.160;2022-07-23T08:02:26;24.48;;;15.32;;
57635;SDS011;43465;50.728;4.160;2022-07-23T08:04:52;18.05;;;14.05;;
57635;SDS011;43465;50.728;4.160;2022-07-23T08:07:18;14.27;;;12.25;;
57635;SDS011;43465;50.728;4.160;2022-07-23T08:09:44;16.42;;;13.30;;
57635;SDS011;43465;50.728;4.160;2022-07-23T08:12:09;15.68;;;13.35;;
57635;SDS011;43465;50.728;4.160;2022-07-23T08:14:35;16.45;;;13.45;;
57635;SDS011;43465;50.728;4.160;2022-07-23T08:17:01;19.48;;;14.52;;
57635;SDS011;43465;50.728;4.160;2022-07-23T08:19:26;16.67;;;12.55;;
57635;SDS011;43465;50.728;4.160;2022-07-23T08:21:52;17.75;;;13.15;;
57635;SDS011;43465;50.728;4.160;2022-07-23T08:24:17;14.80;;;12.85;;
57635;SDS011;43465;50.728;4.160;2022-07-23T08:26:43;21.27;;;14.15;;
57635;SDS011;43465;50.728;4.160;2022-07-23T08:29:09;18.77;;;12.90;;
57635;SDS011;43465;50.728;4.160;2022-07-23T08:31:34;21.63;;;15.10;;
57635;SDS011;43465;50.728;4.160;2022-07-23T08:34:00;19.27;;;12.93;;
57635;SDS011;43465;50.728;4.160;2022-07-23T08:36:27;17.02;;;13.55;;
57635;SDS011;43465;50.728;4.160;2022-07-23T08:38:53;21.42;;;14.40;;
57635;SDS011;43465;50.728;4.160;2022-07-23T08:41:19;15.88;;;13.90;;
57635;SDS011;43465;50.728;4.160;2022-07-23T08:43:46;18.13;;;13.73;;
57635;SDS011;43465;50.728;4.160;2022-07-23T08:46:12;19.10;;;13.93;;
57635;SDS011;43465;50.728;4.160;2022-07-23T08:48:38;16.33;;;12.38;;
57635;SDS011;43465;50.728;4.160;2022-07-23T08:51:04;16.52;;;12.45;;
57635;SDS011;43465;50.728;4.160;2022-07-23T08:53:31;13.43;;;12.00;;
57635;SDS011;43465;50.728;4.160;2022-07-23T08:55:59;15.85;;;13.00;;
57635;SDS011;43465;50.728;4.160;2022-07-23T08:58:26;14.88;;;12.05;;
57635;SDS011;43465;50.728;4.160;2022-07-23T09:00:52;16.17;;;12.55;;
57635;SDS011;43465;50.728;4.160;2022-07-23T09:03:22;15.73;;;12.82;;
57635;SDS011;43465;50.728;4.160;2022-07-23T09:05:50;15.02;;;11.07;;
57635;SDS011;43465;50.728;4.160;2022-07-23T09:08:18;13.23;;;11.88;;
57635;SDS011;43465;50.728;4.160;2022-07-23T09:13:23;18.40;;;12.45;;
57635;SDS011;43465;50.728;4.160;2022-07-23T09:16:01;13.20;;;10.55;;
57635;SDS011;43465;50.728;4.160;2022-07-23T09:18:29;14.13;;;11.50;;
57635;SDS011;43465;50.728;4.160;2022-07-23T09:23:36;13.88;;;11.40;;
57635;SDS011;43465;50.728;4.160;2022-07-23T09:26:10;15.27;;;11.93;;
57635;SDS011;43465;50.728;4.160;2022-07-23T09:29:31;17.17;;;11.77;;
57635;SDS011;43465;50.728;4.160;2022-07-23T09:31:49;15.18;;;11.25;;
57635;SDS011;43465;50.728;4.160;2022-07-23T09:34:18;14.38;;;10.55;;
57635;SDS011;43465;50.728;4.160;2022-07-23T09:36:44;15.57;;;11.82;;
57635;SDS011;43465;50.728;4.160;2022-07-23T09:39:10;17.63;;;11.10;;
57635;SDS011;43465;50.728;4.160;2022-07-23T09:41:44;14.65;;;11.63;;
57635;SDS011;43465;50.728;4.160;2022-07-23T09:44:18;13.73;;;11.85;;
57635;SDS011;43465;50.728;4.160;2022-07-23T09:46:45;16.05;;;11.63;;
57635;SDS011;43465;50.728;4.160;2022-07-23T09:49:17;14.85;;;11.02;;
57635;SDS011;43465;50.728;4.160;2022-07-23T09:51:55;12.38;;;11.13;;
57635;SDS011;43465;50.728;4.160;2022-07-23T09:56:58;12.32;;;10.20;;
57635;SDS011;43465;50.728;4.160;2022-07-23T09:59:30;14.38;;;10.38;;
57635;SDS011;43465;50.728;4.160;2022-07-23T10:01:58;10.98;;;9.90;;
57635;SDS011;43465;50.728;4.160;2022-07-23T10:04:25;12.85;;;9.65;;
57635;SDS011;43465;50.728;4.160;2022-07-23T10:06:53;13.02;;;9.70;;
57635;SDS011;43465;50.728;4.160;2022-07-23T10:09:26;13.07;;;8.93;;
57635;SDS011;43465;50.728;4.160;2022-07-23T10:11:57;10.95;;;8.90;;
57635;SDS011;43465;50.728;4.160;2022-07-23T10:14:38;11.10;;;9.30;;
57635;SDS011;43465;50.728;4.160;2022-07-23T10:17:04;9.95;;;8.95;;
57635;SDS011;43465;50.728;4.160;2022-07-23T10:19:31;10.30;;;9.07;;
57635;SDS011;43465;50.728;4.160;2022-07-23T10:22:02;12.05;;;9.02;;
57635;SDS011;43465;50.728;4.160;2022-07-23T10:30:30;9.68;;;8.60;;
57635;SDS011;43465;50.728;4.160;2022-07-23T10:38:46;10.73;;;9.05;;
57635;SDS011;43465;50.728;4.160;2022-07-23T10:41:30;11.40;;;7.80;;
57635;SDS011;43465;50.728;4.160;2022-07-23T10:44:09;11.00;;;9.27;;
57635;SDS011;43465;50.728;4.160;2022-07-23T10:49:31;10.25;;;8.95;;
57635;SDS011;43465;50.728;4.160;2022-07-23T10:54:40;10.27;;;8.90;;
57635;SDS011;43465;50.728;4.160;2022-07-23T10:57:07;9.10;;;7.68;;
57635;SDS011;43465;50.728;4.160;2022-07-23T11:02:37;11.27;;;8.70;;
57635;SDS011;43465;50.728;4.160;2022-07-23T11:05:05;10.02;;;8.15;;
57635;SDS011;43465;50.728;4.160;2022-07-23T11:07:36;11.13;;;7.93;;
57635;SDS011;43465;50.728;4.160;2022-07-23T11:10:38;10.20;;;8.50;;
57635;SDS011;43465;50.728;4.160;2022-07-23T11:16:23;9.55;;;8.35;;
57635;SDS011;43465;50.728;4.160;2022-07-23T11:24:03;8.15;;;7.35;;
57635;SDS011;43465;50.728;4.160;2022-07-23T11:32:06;7.88;;;6.93;;
57635;SDS011;43465;50.728;4.160;2022-07-23T11:34:49;6.95;;;6.22;;
57635;SDS011;43465;50.728;4.160;2022-07-23T11:37:27;9.57;;;5.80;;
57635;SDS011;43465;50.728;4.160;2022-07-23T11:39:56;6.65;;;5.88;;
57635;SDS011;43465;50.728;4.160;2022-07-23T11:42:22;8.20;;;6.78;;
57635;SDS011;43465;50.728;4.160;2022-07-23T11:44:49;11.45;;;7.25;;
57635;SDS011;43465;50.728;4.160;2022-07-23T11:47:15;8.38;;;6.78;;
57635;SDS011;43465;50.728;4.160;2022-07-23T11:49:52;6.68;;;5.75;;
57635;SDS011;43465;50.728;4.160;2022-07-23T11:52:18;10.88;;;5.68;;
57635;SDS011;43465;50.728;4.160;2022-07-23T11:54:55;10.30;;;7.13;;
57635;SDS011;43465;50.728;4.160;2022-07-23T11:57:26;7.80;;;6.68;;
57635;SDS011;43465;50.728;4.160;2022-07-23T12:00:04;6.88;;;5.80;;
57635;SDS011;43465;50.728;4.160;2022-07-23T12:02:35;5.95;;;5.20;;
57635;SDS011;43465;50.728;4.160;2022-07-23T12:05:05;9.43;;;5.55;;
57635;SDS011;43465;50.728;4.160;2022-07-23T12:07:42;5.55;;;4.93;;
57635;SDS011;43465;50.728;4.160;2022-07-23T12:10:14;5.82;;;5.25;;
57635;SDS011;43465;50.728;4.160;2022-07-23T12:15:13;8.10;;;4.93;;
57635;SDS011;43465;50.728;4.160;2022-07-23T12:17:40;8.18;;;5.43;;
57635;SDS011;43465;50.728;4.160;2022-07-23T12:20:08;6.65;;;4.95;;
57635;SDS011;43465;50.728;4.160;2022-07-23T12:22:41;5.50;;;4.70;;
57635;SDS011;43465;50.728;4.160;2022-07-23T12:25:13;6.78;;;4.53;;
57635;SDS011;43465;50.728;4.160;2022-07-23T12:27:40;6.70;;;5.40;;
57635;SDS011;43465;50.728;4.160;2022-07-23T12:30:20;7.70;;;6.20;;
57635;SDS011;43465;50.728;4.160;2022-07-23T12:32:55;8.25;;;4.63;;
57635;SDS011;43465;50.728;4.160;2022-07-23T12:35:22;8.65;;;5.32;;
57635;SDS011;43465;50.728;4.160;2022-07-23T12:37:59;9.10;;;5.30;;
57635;SDS011;43465;50.728;4.160;2022-07-23T12:40:33;8.43;;;5.07;;
57635;SDS011;43465;50.728;4.160;2022-07-23T12:43:23;6.30;;;5.28;;
57635;SDS011;43465;50.728;4.160;2022-07-23T12:45:50;7.57;;;5.10;;
57635;SDS011;43465;50.728;4.160;2022-07-23T12:48:27;8.90;;;5.50;;
57635;SDS011;43465;50.728;4.160;2022-07-23T12:51:29;6.70;;;5.18;;
57635;SDS011;43465;50.728;4.160;2022-07-23T12:54:09;7.55;;;5.05;;
57635;SDS011;43465;50.728;4.160;2022-07-23T12:56:38;5.15;;;4.65;;
57635;SDS011;43465;50.728;4.160;2022-07-23T12:59:09;6.75;;;5.32;;
57635;SDS011;43465;50.728;4.160;2022-07-23T13:01:39;5.93;;;4.85;;
57635;SDS011;43465;50.728;4.160;2022-07-23T13:04:16;6.53;;;5.32;;
57635;SDS011;43465;50.728;4.160;2022-07-23T13:06:47;8.27;;;4.72;;
57635;SDS011;43465;50.728;4.160;2022-07-23T13:09:19;9.18;;;5.70;;
57635;SDS011;43465;50.728;4.160;2022-07-23T13:11:47;6.82;;;5.43;;
57635;SDS011;43465;50.728;4.160;2022-07-23T13:14:14;5.22;;;4.40;;
57635;SDS011;43465;50.728;4.160;2022-07-23T13:16:40;6.32;;;5.10;;
57635;SDS011;43465;50.728;4.160;2022-07-23T13:19:07;8.63;;;5.20;;
57635;SDS011;43465;50.728;4.160;2022-07-23T13:21:33;5.53;;;4.78;;
57635;SDS011;43465;50.728;4.160;2022-07-23T13:23:59;6.03;;;4.68;;
57635;SDS011;43465;50.728;4.160;2022-07-23T13:26:25;5.13;;;4.65;;
57635;SDS011;43465;50.728;4.160;2022-07-23T13:28:52;5.75;;;4.78;;
57635;SDS011;43465;50.728;4.160;2022-07-23T13:31:18;7.97;;;5.03;;
57635;SDS011;43465;50.728;4.160;2022-07-23T13:33:43;8.98;;;5.07;;
57635;SDS011;43465;50.728;4.160;2022-07-23T13:36:09;5.82;;;4.25;;
57635;SDS011;43465;50.728;4.160;2022-07-23T13:38:35;5.45;;;4.95;;
57635;SDS011;43465;50.728;4.160;2022-07-23T13:41:00;6.10;;;5.20;;
57635;SDS011;43465;50.728;4.160;2022-07-23T13:43:28;6.78;;;5.30;;
57635;SDS011;43465;50.728;4.160;2022-07-23T13:45:54;6.30;;;5.68;;
57635;SDS011;43465;50.728;4.160;2022-07-23T13:48:20;5.68;;;5.10;;
57635;SDS011;43465;50.728;4.160;2022-07-23T13:50:46;7.68;;;5.20;;
57635;SDS011;43465;50.728;4.160;2022-07-23T13:53:13;5.50;;;5.00;;
57635;SDS011;43465;50.728;4.160;2022-07-23T13:55:42;5.85;;;4.82;;
57635;SDS011;43465;50.728;4.160;2022-07-23T13:58:08;6.93;;;5.57;;
57635;SDS011;43465;50.728;4.160;2022-07-23T14:00:35;8.02;;;6.00;;
57635;SDS011;43465;50.728;4.160;2022-07-23T14:03:06;8.75;;;5.60;;
57635;SDS011;43465;50.728;4.160;2022-07-23T14:05:31;5.70;;;5.18;;
57635;SDS011;43465;50.728;4.160;2022-07-23T14:07:57;8.02;;;5.22;;
57635;SDS011;43465;50.728;4.160;2022-07-23T14:10:23;8.60;;;5.43;;
57635;SDS011;43465;50.728;4.160;2022-07-23T14:12:50;6.90;;;4.78;;
57635;SDS011;43465;50.728;4.160;2022-07-23T14:15:17;6.03;;;5.13;;
57635;SDS011;43465;50.728;4.160;2022-07-23T14:17:44;5.80;;;4.60;;
57635;SDS011;43465;50.728;4.160;2022-07-23T14:20:11;6.13;;;5.43;;
57635;SDS011;43465;50.728;4.160;2022-07-23T14:22:38;5.57;;;4.88;;
57635;SDS011;43465;50.728;4.160;2022-07-23T14:25:04;5.57;;;4.97;;
57635;SDS011;43465;50.728;4.160;2022-07-23T14:27:31;5.90;;;4.75;;
57635;SDS011;43465;50.728;4.160;2022-07-23T14:29:56;8.95;;;4.78;;
57635;SDS011;43465;50.728;4.160;2022-07-23T14:32:23;6.95;;;5.13;;
57635;SDS011;43465;50.728;4.160;2022-07-23T14:34:49;7.53;;;5.82;;
57635;SDS011;43465;50.728;4.160;2022-07-23T14:37:15;5.65;;;5.20;;
57635;SDS011;43465;50.728;4.160;2022-07-23T14:39:42;5.63;;;5.15;;
57635;SDS011;43465;50.728;4.160;2022-07-23T14:42:09;5.85;;;5.30;;
57635;SDS011;43465;50.728;4.160;2022-07-23T14:44:36;7.68;;;5.57;;
57635;SDS011;43465;50.728;4.160;2022-07-23T14:47:03;7.03;;;4.75;;
57635;SDS011;43465;50.728;4.160;2022-07-23T14:49:30;10.05;;;5.38;;
57635;SDS011;43465;50.728;4.160;2022-07-23T14:51:57;6.68;;;4.90;;
57635;SDS011;43465;50.728;4.160;2022-07-23T14:54:23;8.43;;;4.80;;
57635;SDS011;43465;50.728;4.160;2022-07-23T14:56:51;5.65;;;5.10;;
57635;SDS011;43465;50.728;4.160;2022-07-23T14:59:20;6.88;;;5.25;;
57635;SDS011;43465;50.728;4.160;2022-07-23T15:01:46;5.60;;;5.10;;
57635;SDS011;43465;50.728;4.160;2022-07-23T15:04:12;7.43;;;5.40;;
57635;SDS011;43465;50.728;4.160;2022-07-23T15:06:38;6.00;;;5.45;;
57635;SDS011;43465;50.728;4.160;2022-07-23T15:09:04;5.68;;;5.10;;
57635;SDS011;43465;50.728;4.160;2022-07-23T15:11:29;5.68;;;5.18;;
57635;SDS011;43465;50.728;4.160;2022-07-23T15:13:59;8.52;;;5.82;;
57635;SDS011;43465;50.728;4.160;2022-07-23T15:16:25;6.43;;;5.30;;